sensor_id;sensor_type;location;lat;lon;timestamp;P1;durP1;ratioP1;P2;durP2;ratioP2
81930;SDS011;71395;43.488;1.472;2023-11-19T00:00:29;4.72;;;2.60;;
81930;SDS011;71395;43.488;1.472;2023-11-19T00:02:55;4.68;;;2.75;;
81930;SDS011;71395;43.488;1.472;2023-11-19T00:05:20;4.63;;;2.40;;
81930;SDS011;71395;43.488;1.472;2023-11-19T00:07:45;3.80;;;2.42;;
81930;SDS011;71395;43.488;1.472;2023-11-19T00:10:12;4.68;;;2.65;;
81930;SDS011;71395;43.488;1.472;2023-11-19T00:12:42;4.07;;;2.33;;
81930;SDS011;71395;43.488;1.472;2023-11-19T00:15:10;3.97;;;2.40;;
81930;SDS011;71395;43.488;1.472;2023-11-19T00:17:39;4.65;;;2.53;;
81930;SDS011;71395;43.488;1.472;2023-11-19T00:20:11;4.30;;;2.35;;
81930;SDS011;71395;43.488;1.472;2023-11-19T00:22:37;4.25;;;2.55;;
81930;SDS011;71395;43.488;1.472;2023-11-19T00:25:02;4.50;;;2.47;;
81930;SDS011;71395;43.488;1.472;2023-11-19T00:27:28;5.00;;;2.72;;
81930;SDS011;71395;43.488;1.472;2023-11-19T00:29:54;4.85;;;2.50;;
81930;SDS011;71395;43.488;1.472;2023-11-19T00:32:19;4.68;;;2.67;;
81930;SDS011;71395;43.488;1.472;2023-11-19T00:34:45;5.67;;;2.80;;
81930;SDS011;71395;43.488;1.472;2023-11-19T00:37:13;4.63;;;2.40;;
81930;SDS011;71395;43.488;1.472;2023-11-19T00:39:41;5.03;;;2.50;;
81930;SDS011;71395;43.488;1.472;2023-11-19T00:42:07;5.13;;;2.53;;
81930;SDS011;71395;43.488;1.472;2023-11-19T00:44:32;4.80;;;2.60;;
81930;SDS011;71395;43.488;1.472;2023-11-19T00:46:58;4.68;;;2.60;;
81930;SDS011;71395;43.488;1.472;2023-11-19T00:49:24;5.13;;;2.50;;
81930;SDS011;71395;43.488;1.472;2023-11-19T00:51:50;3.95;;;2.17;;
81930;SDS011;71395;43.488;1.472;2023-11-19T00:54:15;5.63;;;2.63;;
81930;SDS011;71395;43.488;1.472;2023-11-19T00:56:41;5.05;;;2.72;;
81930;SDS011;71395;43.488;1.472;2023-11-19T00:59:06;4.83;;;2.43;;
81930;SDS011;71395;43.488;1.472;2023-11-19T01:01:32;4.43;;;2.35;;
81930;SDS011;71395;43.488;1.472;2023-11-19T01:03:58;4.75;;;2.50;;
81930;SDS011;71395;43.488;1.472;2023-11-19T01:06:27;5.10;;;2.33;;
81930;SDS011;71395;43.488;1.472;2023-11-19T01:08:53;4.80;;;2.55;;
81930;SDS011;71395;43.488;1.472;2023-11-19T01:11:20;5.15;;;2.65;;
81930;SDS011;71395;43.488;1.472;2023-11-19T01:13:46;4.00;;;2.17;;
81930;SDS011;71395;43.488;1.472;2023-11-19T01:16:11;4.43;;;2.40;;
81930;SDS011;71395;43.488;1.472;2023-11-19T01:18:38;3.97;;;2.35;;
81930;SDS011;71395;43.488;1.472;2023-11-19T01:21:03;4.78;;;2.72;;
81930;SDS011;71395;43.488;1.472;2023-11-19T01:23:29;4.70;;;2.35;;
81930;SDS011;71395;43.488;1.472;2023-11-19T01:25:55;4.20;;;2.28;;
81930;SDS011;71395;43.488;1.472;2023-11-19T01:28:20;4.45;;;2.33;;
81930;SDS011;71395;43.488;1.472;2023-11-19T01:30:45;4.75;;;2.40;;
81930;SDS011;71395;43.488;1.472;2023-11-19T01:33:11;4.10;;;2.28;;
81930;SDS011;71395;43.488;1.472;2023-11-19T01:35:36;4.45;;;2.40;;
81930;SDS011;71395;43.488;1.472;2023-11-19T01:38:01;3.92;;;2.40;;
81930;SDS011;71395;43.488;1.472;2023-11-19T01:40:27;5.07;;;2.75;;
81930;SDS011;71395;43.488;1.472;2023-11-19T01:42:52;4.70;;;2.30;;
81930;SDS011;71395;43.488;1.472;2023-11-19T01:45:22;4.07;;;2.15;;
81930;SDS011;71395;43.488;1.472;2023-11-19T01:47:55;4.45;;;2.63;;
81930;SDS011;71395;43.488;1.472;2023-11-19T01:50:22;4.38;;;2.45;;
81930;SDS011;71395;43.488;1.472;2023-11-19T01:52:50;4.03;;;2.47;;
81930;SDS011;71395;43.488;1.472;2023-11-19T01:55:19;3.97;;;2.40;;
81930;SDS011;71395;43.488;1.472;2023-11-19T01:57:46;4.07;;;2.28;;
81930;SDS011;71395;43.488;1.472;2023-11-19T02:00:14;4.43;;;2.70;;
81930;SDS011;71395;43.488;1.472;2023-11-19T02:02:40;4.25;;;2.47;;
81930;SDS011;71395;43.488;1.472;2023-11-19T02:05:06;4.20;;;2.30;;
81930;SDS011;71395;43.488;1.472;2023-11-19T02:07:32;3.72;;;2.30;;
81930;SDS011;71395;43.488;1.472;2023-11-19T02:09:57;4.47;;;2.30;;
81930;SDS011;71395;43.488;1.472;2023-11-19T02:12:27;4.60;;;2.53;;
81930;SDS011;71395;43.488;1.472;2023-11-19T02:14:58;4.05;;;2.50;;
81930;SDS011;71395;43.488;1.472;2023-11-19T02:17:25;4.65;;;2.50;;
81930;SDS011;71395;43.488;1.472;2023-11-19T02:19:56;4.35;;;2.53;;
81930;SDS011;71395;43.488;1.472;2023-11-19T02:22:22;4.85;;;2.50;;
81930;SDS011;71395;43.488;1.472;2023-11-19T02:24:47;4.55;;;2.33;;
81930;SDS011;71395;43.488;1.472;2023-11-19T02:27:21;3.92;;;2.40;;
81930;SDS011;71395;43.488;1.472;2023-11-19T02:29:55;4.28;;;2.45;;
81930;SDS011;71395;43.488;1.472;2023-11-19T02:32:21;4.25;;;2.40;;
81930;SDS011;71395;43.488;1.472;2023-11-19T02:34:47;4.70;;;2.67;;
81930;SDS011;71395;43.488;1.472;2023-11-19T02:37:12;4.43;;;2.60;;
81930;SDS011;71395;43.488;1.472;2023-11-19T02:39:39;5.90;;;2.75;;
81930;SDS011;71395;43.488;1.472;2023-11-19T02:42:06;4.90;;;2.50;;
81930;SDS011;71395;43.488;1.472;2023-11-19T02:44:33;4.20;;;2.22;;
81930;SDS011;71395;43.488;1.472;2023-11-19T02:46:59;5.05;;;2.83;;
81930;SDS011;71395;43.488;1.472;2023-11-19T02:49:24;5.50;;;2.40;;
81930;SDS011;71395;43.488;1.472;2023-11-19T02:51:50;4.95;;;2.70;;
81930;SDS011;71395;43.488;1.472;2023-11-19T02:54:16;3.90;;;2.50;;
81930;SDS011;71395;43.488;1.472;2023-11-19T02:56:44;4.70;;;2.60;;
81930;SDS011;71395;43.488;1.472;2023-11-19T02:59:12;4.00;;;2.50;;
81930;SDS011;71395;43.488;1.472;2023-11-19T03:01:52;4.88;;;2.75;;
81930;SDS011;71395;43.488;1.472;2023-11-19T03:04:17;5.30;;;3.20;;
81930;SDS011;71395;43.488;1.472;2023-11-19T03:06:45;4.55;;;2.80;;
81930;SDS011;71395;43.488;1.472;2023-11-19T03:09:10;4.93;;;2.83;;
81930;SDS011;71395;43.488;1.472;2023-11-19T03:11:36;3.80;;;2.50;;
81930;SDS011;71395;43.488;1.472;2023-11-19T03:14:01;5.10;;;2.80;;
81930;SDS011;71395;43.488;1.472;2023-11-19T03:16:28;4.65;;;2.65;;
81930;SDS011;71395;43.488;1.472;2023-11-19T03:18:54;4.90;;;2.92;;
81930;SDS011;71395;43.488;1.472;2023-11-19T03:21:26;4.72;;;2.97;;
81930;SDS011;71395;43.488;1.472;2023-11-19T03:23:52;5.60;;;3.10;;
81930;SDS011;71395;43.488;1.472;2023-11-19T03:26:18;5.27;;;2.83;;
81930;SDS011;71395;43.488;1.472;2023-11-19T03:28:43;4.73;;;3.00;;
81930;SDS011;71395;43.488;1.472;2023-11-19T03:31:08;5.53;;;2.90;;
81930;SDS011;71395;43.488;1.472;2023-11-19T03:33:34;5.15;;;3.08;;
81930;SDS011;71395;43.488;1.472;2023-11-19T03:35:59;5.75;;;2.85;;
81930;SDS011;71395;43.488;1.472;2023-11-19T03:38:24;4.80;;;2.70;;
81930;SDS011;71395;43.488;1.472;2023-11-19T03:40:50;5.20;;;3.00;;
81930;SDS011;71395;43.488;1.472;2023-11-19T03:43:16;4.85;;;2.85;;
81930;SDS011;71395;43.488;1.472;2023-11-19T03:45:41;5.03;;;3.10;;
81930;SDS011;71395;43.488;1.472;2023-11-19T03:48:06;5.88;;;3.15;;
81930;SDS011;71395;43.488;1.472;2023-11-19T03:50:32;4.85;;;2.83;;
81930;SDS011;71395;43.488;1.472;2023-11-19T03:52:57;5.03;;;3.20;;
81930;SDS011;71395;43.488;1.472;2023-11-19T03:55:23;5.72;;;3.08;;
81930;SDS011;71395;43.488;1.472;2023-11-19T03:57:48;4.88;;;2.97;;
81930;SDS011;71395;43.488;1.472;2023-11-19T04:00:14;5.38;;;3.15;;
81930;SDS011;71395;43.488;1.472;2023-11-19T04:02:40;4.60;;;2.90;;
81930;SDS011;71395;43.488;1.472;2023-11-19T04:05:06;4.97;;;2.90;;
81930;SDS011;71395;43.488;1.472;2023-11-19T04:07:31;5.07;;;2.90;;
81930;SDS011;71395;43.488;1.472;2023-11-19T04:09:57;5.25;;;2.80;;
81930;SDS011;71395;43.488;1.472;2023-11-19T04:12:23;4.82;;;2.95;;
81930;SDS011;71395;43.488;1.472;2023-11-19T04:14:49;4.88;;;2.85;;
81930;SDS011;71395;43.488;1.472;2023-11-19T04:17:14;5.05;;;3.03;;
81930;SDS011;71395;43.488;1.472;2023-11-19T04:19:39;4.55;;;2.80;;
81930;SDS011;71395;43.488;1.472;2023-11-19T04:22:07;5.82;;;3.70;;
81930;SDS011;71395;43.488;1.472;2023-11-19T04:24:34;5.88;;;3.20;;
81930;SDS011;71395;43.488;1.472;2023-11-19T04:26:59;4.88;;;3.00;;
81930;SDS011;71395;43.488;1.472;2023-11-19T04:29:24;5.80;;;3.00;;
81930;SDS011;71395;43.488;1.472;2023-11-19T04:31:50;4.13;;;2.65;;
81930;SDS011;71395;43.488;1.472;2023-11-19T04:34:15;5.13;;;3.03;;
81930;SDS011;71395;43.488;1.472;2023-11-19T04:36:41;4.68;;;3.00;;
81930;SDS011;71395;43.488;1.472;2023-11-19T04:39:06;5.13;;;3.22;;
81930;SDS011;71395;43.488;1.472;2023-11-19T04:41:47;4.45;;;2.72;;
81930;SDS011;71395;43.488;1.472;2023-11-19T04:44:13;4.78;;;3.03;;
81930;SDS011;71395;43.488;1.472;2023-11-19T04:46:40;5.00;;;2.92;;
81930;SDS011;71395;43.488;1.472;2023-11-19T04:49:08;5.65;;;2.83;;
81930;SDS011;71395;43.488;1.472;2023-11-19T04:51:41;4.75;;;3.05;;
81930;SDS011;71395;43.488;1.472;2023-11-19T04:54:07;4.70;;;2.70;;
81930;SDS011;71395;43.488;1.472;2023-11-19T04:56:33;5.22;;;2.83;;
81930;SDS011;71395;43.488;1.472;2023-11-19T04:59:00;4.90;;;2.83;;
81930;SDS011;71395;43.488;1.472;2023-11-19T05:01:26;4.53;;;2.72;;
81930;SDS011;71395;43.488;1.472;2023-11-19T05:03:52;5.10;;;2.75;;
81930;SDS011;71395;43.488;1.472;2023-11-19T05:06:18;6.00;;;3.00;;
81930;SDS011;71395;43.488;1.472;2023-11-19T05:08:44;4.00;;;2.60;;
81930;SDS011;71395;43.488;1.472;2023-11-19T05:11:09;4.63;;;2.75;;
81930;SDS011;71395;43.488;1.472;2023-11-19T05:13:37;5.22;;;2.83;;
81930;SDS011;71395;43.488;1.472;2023-11-19T05:16:03;4.55;;;2.80;;
81930;SDS011;71395;43.488;1.472;2023-11-19T05:18:28;3.80;;;2.42;;
81930;SDS011;71395;43.488;1.472;2023-11-19T05:20:54;3.88;;;2.72;;
81930;SDS011;71395;43.488;1.472;2023-11-19T05:23:19;5.10;;;2.80;;
81930;SDS011;71395;43.488;1.472;2023-11-19T05:25:45;4.95;;;2.75;;
81930;SDS011;71395;43.488;1.472;2023-11-19T05:28:10;4.65;;;2.58;;
81930;SDS011;71395;43.488;1.472;2023-11-19T05:30:36;4.80;;;2.80;;
81930;SDS011;71395;43.488;1.472;2023-11-19T05:33:01;4.72;;;2.95;;
81930;SDS011;71395;43.488;1.472;2023-11-19T05:35:27;3.47;;;2.25;;
81930;SDS011;71395;43.488;1.472;2023-11-19T05:37:52;4.50;;;2.67;;
81930;SDS011;71395;43.488;1.472;2023-11-19T05:40:18;3.95;;;2.22;;
81930;SDS011;71395;43.488;1.472;2023-11-19T05:42:45;4.30;;;2.70;;
81930;SDS011;71395;43.488;1.472;2023-11-19T05:45:11;4.50;;;2.78;;
81930;SDS011;71395;43.488;1.472;2023-11-19T05:47:37;4.63;;;2.33;;
81930;SDS011;71395;43.488;1.472;2023-11-19T05:50:02;5.63;;;2.90;;
81930;SDS011;71395;43.488;1.472;2023-11-19T05:52:29;4.47;;;2.65;;
81930;SDS011;71395;43.488;1.472;2023-11-19T05:54:58;4.32;;;2.70;;
81930;SDS011;71395;43.488;1.472;2023-11-19T05:57:34;4.07;;;2.80;;
81930;SDS011;71395;43.488;1.472;2023-11-19T05:59:59;4.30;;;2.70;;
81930;SDS011;71395;43.488;1.472;2023-11-19T06:02:25;4.50;;;2.90;;
81930;SDS011;71395;43.488;1.472;2023-11-19T06:04:52;4.10;;;2.70;;
81930;SDS011;71395;43.488;1.472;2023-11-19T06:07:18;4.38;;;2.80;;
81930;SDS011;71395;43.488;1.472;2023-11-19T06:09:43;4.07;;;2.53;;
81930;SDS011;71395;43.488;1.472;2023-11-19T06:12:09;5.50;;;2.67;;
81930;SDS011;71395;43.488;1.472;2023-11-19T06:14:34;4.30;;;2.85;;
81930;SDS011;71395;43.488;1.472;2023-11-19T06:16:59;4.90;;;2.88;;
81930;SDS011;71395;43.488;1.472;2023-11-19T06:19:25;4.30;;;2.50;;
81930;SDS011;71395;43.488;1.472;2023-11-19T06:21:50;5.32;;;2.90;;
81930;SDS011;71395;43.488;1.472;2023-11-19T06:24:16;5.03;;;3.00;;
81930;SDS011;71395;43.488;1.472;2023-11-19T06:26:41;4.63;;;2.92;;
81930;SDS011;71395;43.488;1.472;2023-11-19T06:29:07;4.40;;;2.70;;
81930;SDS011;71395;43.488;1.472;2023-11-19T06:31:32;5.10;;;2.70;;
81930;SDS011;71395;43.488;1.472;2023-11-19T06:33:57;3.92;;;2.55;;
81930;SDS011;71395;43.488;1.472;2023-11-19T06:36:24;4.82;;;2.83;;
81930;SDS011;71395;43.488;1.472;2023-11-19T06:38:49;4.15;;;2.63;;
81930;SDS011;71395;43.488;1.472;2023-11-19T06:41:14;5.47;;;2.95;;
81930;SDS011;71395;43.488;1.472;2023-11-19T06:43:40;5.95;;;2.95;;
81930;SDS011;71395;43.488;1.472;2023-11-19T06:46:05;4.43;;;2.80;;
81930;SDS011;71395;43.488;1.472;2023-11-19T06:48:34;4.75;;;2.83;;
81930;SDS011;71395;43.488;1.472;2023-11-19T06:50:59;4.40;;;2.70;;
81930;SDS011;71395;43.488;1.472;2023-11-19T06:53:25;4.35;;;3.05;;
81930;SDS011;71395;43.488;1.472;2023-11-19T06:55:53;4.85;;;2.72;;
81930;SDS011;71395;43.488;1.472;2023-11-19T06:58:18;5.50;;;2.83;;
81930;SDS011;71395;43.488;1.472;2023-11-19T07:00:44;4.45;;;2.67;;
81930;SDS011;71395;43.488;1.472;2023-11-19T07:03:10;4.90;;;3.05;;
81930;SDS011;71395;43.488;1.472;2023-11-19T07:05:36;4.10;;;2.80;;
81930;SDS011;71395;43.488;1.472;2023-11-19T07:08:05;5.50;;;2.88;;
81930;SDS011;71395;43.488;1.472;2023-11-19T07:10:32;5.07;;;2.72;;
81930;SDS011;71395;43.488;1.472;2023-11-19T07:12:58;4.22;;;2.60;;
81930;SDS011;71395;43.488;1.472;2023-11-19T07:15:24;4.60;;;2.88;;
81930;SDS011;71395;43.488;1.472;2023-11-19T07:17:49;4.87;;;2.70;;
81930;SDS011;71395;43.488;1.472;2023-11-19T07:20:15;4.55;;;2.70;;
81930;SDS011;71395;43.488;1.472;2023-11-19T07:22:43;4.68;;;2.67;;
81930;SDS011;71395;43.488;1.472;2023-11-19T07:25:15;4.40;;;2.83;;
81930;SDS011;71395;43.488;1.472;2023-11-19T07:27:40;5.45;;;3.03;;
81930;SDS011;71395;43.488;1.472;2023-11-19T07:30:06;4.85;;;2.85;;
81930;SDS011;71395;43.488;1.472;2023-11-19T07:32:34;4.50;;;2.95;;
81930;SDS011;71395;43.488;1.472;2023-11-19T07:35:00;5.25;;;3.40;;
81930;SDS011;71395;43.488;1.472;2023-11-19T07:37:25;4.75;;;2.67;;
81930;SDS011;71395;43.488;1.472;2023-11-19T07:39:51;5.00;;;3.00;;
81930;SDS011;71395;43.488;1.472;2023-11-19T07:42:16;4.47;;;2.80;;
81930;SDS011;71395;43.488;1.472;2023-11-19T07:44:43;5.00;;;2.78;;
81930;SDS011;71395;43.488;1.472;2023-11-19T07:47:08;5.55;;;3.03;;
81930;SDS011;71395;43.488;1.472;2023-11-19T07:49:34;4.60;;;3.28;;
81930;SDS011;71395;43.488;1.472;2023-11-19T07:51:59;4.90;;;2.80;;
81930;SDS011;71395;43.488;1.472;2023-11-19T07:54:25;4.53;;;3.00;;
81930;SDS011;71395;43.488;1.472;2023-11-19T07:56:50;5.97;;;3.13;;
81930;SDS011;71395;43.488;1.472;2023-11-19T07:59:16;5.50;;;3.13;;
81930;SDS011;71395;43.488;1.472;2023-11-19T08:01:41;5.05;;;3.38;;
81930;SDS011;71395;43.488;1.472;2023-11-19T08:04:07;4.85;;;2.97;;
81930;SDS011;71395;43.488;1.472;2023-11-19T08:06:32;4.68;;;3.05;;
81930;SDS011;71395;43.488;1.472;2023-11-19T08:08:57;4.93;;;3.00;;
81930;SDS011;71395;43.488;1.472;2023-11-19T08:11:24;4.68;;;3.10;;
81930;SDS011;71395;43.488;1.472;2023-11-19T08:13:49;4.60;;;2.80;;
81930;SDS011;71395;43.488;1.472;2023-11-19T08:16:15;5.15;;;3.00;;
81930;SDS011;71395;43.488;1.472;2023-11-19T08:18:41;4.78;;;3.10;;
81930;SDS011;71395;43.488;1.472;2023-11-19T08:21:08;4.70;;;3.00;;
81930;SDS011;71395;43.488;1.472;2023-11-19T08:23:34;4.15;;;2.75;;
81930;SDS011;71395;43.488;1.472;2023-11-19T08:25:59;4.90;;;2.97;;
81930;SDS011;71395;43.488;1.472;2023-11-19T08:28:25;4.30;;;3.00;;
81930;SDS011;71395;43.488;1.472;2023-11-19T08:30:50;4.07;;;2.80;;
81930;SDS011;71395;43.488;1.472;2023-11-19T08:33:15;4.78;;;3.00;;
81930;SDS011;71395;43.488;1.472;2023-11-19T08:35:42;4.68;;;2.85;;
81930;SDS011;71395;43.488;1.472;2023-11-19T08:38:07;4.38;;;2.90;;
81930;SDS011;71395;43.488;1.472;2023-11-19T08:40:32;4.50;;;2.85;;
81930;SDS011;71395;43.488;1.472;2023-11-19T08:42:58;6.32;;;3.50;;
81930;SDS011;71395;43.488;1.472;2023-11-19T08:45:23;5.40;;;3.00;;
81930;SDS011;71395;43.488;1.472;2023-11-19T08:47:49;5.32;;;3.10;;
81930;SDS011;71395;43.488;1.472;2023-11-19T08:50:15;4.90;;;3.00;;
81930;SDS011;71395;43.488;1.472;2023-11-19T08:52:41;4.65;;;2.65;;
81930;SDS011;71395;43.488;1.472;2023-11-19T08:55:06;4.65;;;2.88;;
81930;SDS011;71395;43.488;1.472;2023-11-19T08:57:32;4.55;;;2.88;;
81930;SDS011;71395;43.488;1.472;2023-11-19T08:59:58;4.20;;;2.70;;
81930;SDS011;71395;43.488;1.472;2023-11-19T09:02:23;4.40;;;2.63;;
81930;SDS011;71395;43.488;1.472;2023-11-19T09:04:49;4.85;;;2.92;;
81930;SDS011;71395;43.488;1.472;2023-11-19T09:07:14;4.20;;;2.58;;
81930;SDS011;71395;43.488;1.472;2023-11-19T09:09:39;4.22;;;2.75;;
81930;SDS011;71395;43.488;1.472;2023-11-19T09:12:05;5.00;;;2.90;;
81930;SDS011;71395;43.488;1.472;2023-11-19T09:14:31;5.05;;;2.88;;
81930;SDS011;71395;43.488;1.472;2023-11-19T09:16:56;4.90;;;2.95;;
81930;SDS011;71395;43.488;1.472;2023-11-19T09:19:23;4.72;;;3.05;;
81930;SDS011;71395;43.488;1.472;2023-11-19T09:21:49;3.95;;;2.70;;
81930;SDS011;71395;43.488;1.472;2023-11-19T09:24:14;4.72;;;2.95;;
81930;SDS011;71395;43.488;1.472;2023-11-19T09:26:40;4.93;;;2.80;;
81930;SDS011;71395;43.488;1.472;2023-11-19T09:29:07;4.43;;;2.70;;
81930;SDS011;71395;43.488;1.472;2023-11-19T09:31:33;4.40;;;2.60;;
81930;SDS011;71395;43.488;1.472;2023-11-19T09:33:58;4.95;;;2.80;;
81930;SDS011;71395;43.488;1.472;2023-11-19T09:36:23;4.53;;;2.50;;
81930;SDS011;71395;43.488;1.472;2023-11-19T09:38:49;4.35;;;3.22;;
81930;SDS011;71395;43.488;1.472;2023-11-19T09:41:14;4.18;;;2.63;;
81930;SDS011;71395;43.488;1.472;2023-11-19T09:43:42;4.22;;;2.47;;
81930;SDS011;71395;43.488;1.472;2023-11-19T09:46:10;4.80;;;2.65;;
81930;SDS011;71395;43.488;1.472;2023-11-19T09:48:38;3.80;;;2.58;;
81930;SDS011;71395;43.488;1.472;2023-11-19T09:51:04;4.18;;;2.70;;
81930;SDS011;71395;43.488;1.472;2023-11-19T09:53:30;4.10;;;2.47;;
81930;SDS011;71395;43.488;1.472;2023-11-19T09:55:56;5.07;;;2.75;;
81930;SDS011;71395;43.488;1.472;2023-11-19T09:58:24;4.57;;;2.70;;
81930;SDS011;71395;43.488;1.472;2023-11-19T10:00:50;4.70;;;2.67;;
81930;SDS011;71395;43.488;1.472;2023-11-19T10:03:17;4.03;;;2.60;;
81930;SDS011;71395;43.488;1.472;2023-11-19T10:05:43;4.20;;;2.50;;
81930;SDS011;71395;43.488;1.472;2023-11-19T10:08:08;4.13;;;2.70;;
81930;SDS011;71395;43.488;1.472;2023-11-19T10:10:35;4.45;;;2.53;;
81930;SDS011;71395;43.488;1.472;2023-11-19T10:13:01;4.28;;;2.35;;
81930;SDS011;71395;43.488;1.472;2023-11-19T10:15:27;4.18;;;2.50;;
81930;SDS011;71395;43.488;1.472;2023-11-19T10:17:56;3.70;;;2.45;;
81930;SDS011;71395;43.488;1.472;2023-11-19T10:20:22;5.07;;;2.92;;
81930;SDS011;71395;43.488;1.472;2023-11-19T10:22:48;3.88;;;2.25;;
81930;SDS011;71395;43.488;1.472;2023-11-19T10:25:23;4.13;;;2.33;;
81930;SDS011;71395;43.488;1.472;2023-11-19T10:27:53;3.53;;;2.17;;
81930;SDS011;71395;43.488;1.472;2023-11-19T10:30:26;4.50;;;2.60;;
81930;SDS011;71395;43.488;1.472;2023-11-19T10:33:11;3.67;;;2.20;;
81930;SDS011;71395;43.488;1.472;2023-11-19T10:38:19;4.30;;;2.47;;
81930;SDS011;71395;43.488;1.472;2023-11-19T10:40:47;4.38;;;2.40;;
81930;SDS011;71395;43.488;1.472;2023-11-19T10:43:12;4.03;;;2.50;;
81930;SDS011;71395;43.488;1.472;2023-11-19T10:45:38;4.05;;;2.25;;
81930;SDS011;71395;43.488;1.472;2023-11-19T10:48:04;4.32;;;2.50;;
81930;SDS011;71395;43.488;1.472;2023-11-19T10:50:32;4.93;;;2.20;;
81930;SDS011;71395;43.488;1.472;2023-11-19T10:52:59;4.35;;;2.28;;
81930;SDS011;71395;43.488;1.472;2023-11-19T10:55:29;4.10;;;2.42;;
81930;SDS011;71395;43.488;1.472;2023-11-19T10:58:00;4.10;;;2.25;;
81930;SDS011;71395;43.488;1.472;2023-11-19T11:00:30;3.55;;;2.20;;
81930;SDS011;71395;43.488;1.472;2023-11-19T11:03:00;4.25;;;2.13;;
81930;SDS011;71395;43.488;1.472;2023-11-19T11:05:28;4.03;;;2.38;;
81930;SDS011;71395;43.488;1.472;2023-11-19T11:10:25;4.32;;;2.17;;
81930;SDS011;71395;43.488;1.472;2023-11-19T11:12:51;4.53;;;2.35;;
81930;SDS011;71395;43.488;1.472;2023-11-19T11:15:24;4.65;;;2.00;;
81930;SDS011;71395;43.488;1.472;2023-11-19T11:17:57;4.50;;;2.15;;
81930;SDS011;71395;43.488;1.472;2023-11-19T11:20:26;4.65;;;2.30;;
81930;SDS011;71395;43.488;1.472;2023-11-19T11:23:19;3.50;;;2.20;;
81930;SDS011;71395;43.488;1.472;2023-11-19T11:31:31;4.22;;;2.08;;
81930;SDS011;71395;43.488;1.472;2023-11-19T11:34:09;4.00;;;1.95;;
81930;SDS011;71395;43.488;1.472;2023-11-19T11:39:28;3.03;;;1.95;;
81930;SDS011;71395;43.488;1.472;2023-11-19T11:50:10;3.67;;;1.90;;
81930;SDS011;71395;43.488;1.472;2023-11-19T11:58:07;2.85;;;1.83;;
81930;SDS011;71395;43.488;1.472;2023-11-19T12:00:37;3.00;;;1.80;;
81930;SDS011;71395;43.488;1.472;2023-11-19T12:03:05;3.50;;;1.70;;
81930;SDS011;71395;43.488;1.472;2023-11-19T12:05:32;3.08;;;1.70;;
81930;SDS011;71395;43.488;1.472;2023-11-19T12:10:29;3.33;;;1.98;;
81930;SDS011;71395;43.488;1.472;2023-11-19T12:12:58;3.05;;;1.67;;
81930;SDS011;71395;43.488;1.472;2023-11-19T12:15:25;2.90;;;1.60;;
81930;SDS011;71395;43.488;1.472;2023-11-19T12:17:52;3.67;;;1.85;;
81930;SDS011;71395;43.488;1.472;2023-11-19T12:20:19;3.08;;;1.60;;
81930;SDS011;71395;43.488;1.472;2023-11-19T12:22:51;2.55;;;1.50;;
81930;SDS011;71395;43.488;1.472;2023-11-19T12:25:18;2.95;;;1.60;;
81930;SDS011;71395;43.488;1.472;2023-11-19T12:27:49;2.42;;;1.50;;
81930;SDS011;71395;43.488;1.472;2023-11-19T12:30:25;2.70;;;1.60;;
81930;SDS011;71395;43.488;1.472;2023-11-19T12:32:51;3.25;;;1.80;;
81930;SDS011;71395;43.488;1.472;2023-11-19T12:35:18;3.55;;;1.50;;
81930;SDS011;71395;43.488;1.472;2023-11-19T12:37:50;3.40;;;1.60;;
81930;SDS011;71395;43.488;1.472;2023-11-19T12:42:43;2.70;;;1.55;;
81930;SDS011;71395;43.488;1.472;2023-11-19T12:45:10;2.78;;;1.60;;
81930;SDS011;71395;43.488;1.472;2023-11-19T12:47:39;2.80;;;1.50;;
81930;SDS011;71395;43.488;1.472;2023-11-19T12:50:08;2.70;;;1.52;;
81930;SDS011;71395;43.488;1.472;2023-11-19T12:52:37;3.15;;;1.75;;
81930;SDS011;71395;43.488;1.472;2023-11-19T12:55:03;2.90;;;1.45;;
81930;SDS011;71395;43.488;1.472;2023-11-19T12:57:47;2.83;;;1.50;;
81930;SDS011;71395;43.488;1.472;2023-11-19T13:00:19;2.45;;;1.52;;
81930;SDS011;71395;43.488;1.472;2023-11-19T13:02:49;2.35;;;1.30;;
81930;SDS011;71395;43.488;1.472;2023-11-19T13:05:34;3.13;;;1.70;;
81930;SDS011;71395;43.488;1.472;2023-11-19T13:08:06;4.25;;;1.60;;
81930;SDS011;71395;43.488;1.472;2023-11-19T13:10:34;2.90;;;1.70;;
81930;SDS011;71395;43.488;1.472;2023-11-19T13:13:16;2.95;;;1.48;;
81930;SDS011;71395;43.488;1.472;2023-11-19T13:15:42;3.08;;;1.60;;
81930;SDS011;71395;43.488;1.472;2023-11-19T13:18:09;2.65;;;1.77;;
81930;SDS011;71395;43.488;1.472;2023-11-19T13:20:35;3.03;;;1.30;;
81930;SDS011;71395;43.488;1.472;2023-11-19T13:23:02;2.95;;;1.45;;
81930;SDS011;71395;43.488;1.472;2023-11-19T13:25:29;3.08;;;1.73;;
81930;SDS011;71395;43.488;1.472;2023-11-19T13:27:55;2.63;;;1.50;;
81930;SDS011;71395;43.488;1.472;2023-11-19T13:30:21;3.42;;;1.50;;
81930;SDS011;71395;43.488;1.472;2023-11-19T13:32:47;2.75;;;1.48;;
81930;SDS011;71395;43.488;1.472;2023-11-19T13:35:13;2.60;;;1.40;;
81930;SDS011;71395;43.488;1.472;2023-11-19T13:37:39;2.90;;;1.45;;
81930;SDS011;71395;43.488;1.472;2023-11-19T13:40:08;2.70;;;1.63;;
81930;SDS011;71395;43.488;1.472;2023-11-19T13:42:36;2.60;;;1.33;;
81930;SDS011;71395;43.488;1.472;2023-11-19T13:45:06;3.55;;;1.80;;
81930;SDS011;71395;43.488;1.472;2023-11-19T13:47:35;2.60;;;1.38;;
81930;SDS011;71395;43.488;1.472;2023-11-19T13:50:01;3.08;;;1.30;;
81930;SDS011;71395;43.488;1.472;2023-11-19T13:52:26;2.30;;;1.20;;
81930;SDS011;71395;43.488;1.472;2023-11-19T13:54:52;3.10;;;1.40;;
81930;SDS011;71395;43.488;1.472;2023-11-19T13:57:17;3.10;;;1.50;;
81930;SDS011;71395;43.488;1.472;2023-11-19T13:59:43;3.15;;;1.60;;
81930;SDS011;71395;43.488;1.472;2023-11-19T14:02:09;3.20;;;1.70;;
81930;SDS011;71395;43.488;1.472;2023-11-19T14:04:34;2.67;;;1.60;;
81930;SDS011;71395;43.488;1.472;2023-11-19T14:07:00;3.15;;;1.58;;
81930;SDS011;71395;43.488;1.472;2023-11-19T14:09:25;3.10;;;1.60;;
81930;SDS011;71395;43.488;1.472;2023-11-19T14:11:51;2.80;;;1.38;;
81930;SDS011;71395;43.488;1.472;2023-11-19T14:14:16;3.35;;;1.70;;
81930;SDS011;71395;43.488;1.472;2023-11-19T14:16:42;3.08;;;1.50;;
81930;SDS011;71395;43.488;1.472;2023-11-19T14:19:07;2.10;;;1.30;;
81930;SDS011;71395;43.488;1.472;2023-11-19T14:21:33;2.60;;;1.55;;
81930;SDS011;71395;43.488;1.472;2023-11-19T14:23:58;2.63;;;1.30;;
81930;SDS011;71395;43.488;1.472;2023-11-19T14:26:24;2.00;;;1.30;;
81930;SDS011;71395;43.488;1.472;2023-11-19T14:28:49;2.65;;;1.42;;
81930;SDS011;71395;43.488;1.472;2023-11-19T14:31:14;2.53;;;1.30;;
81930;SDS011;71395;43.488;1.472;2023-11-19T14:33:40;2.55;;;1.30;;
81930;SDS011;71395;43.488;1.472;2023-11-19T14:36:06;3.20;;;1.60;;
81930;SDS011;71395;43.488;1.472;2023-11-19T14:38:32;2.55;;;1.50;;
81930;SDS011;71395;43.488;1.472;2023-11-19T14:40:58;3.30;;;1.33;;
81930;SDS011;71395;43.488;1.472;2023-11-19T14:43:24;3.95;;;1.30;;
81930;SDS011;71395;43.488;1.472;2023-11-19T14:45:50;2.67;;;1.40;;
81930;SDS011;71395;43.488;1.472;2023-11-19T14:48:15;2.40;;;1.30;;
81930;SDS011;71395;43.488;1.472;2023-11-19T14:50:42;3.15;;;1.65;;
81930;SDS011;71395;43.488;1.472;2023-11-19T14:53:09;3.10;;;1.40;;
81930;SDS011;71395;43.488;1.472;2023-11-19T14:55:35;2.88;;;1.40;;
81930;SDS011;71395;43.488;1.472;2023-11-19T14:58:00;2.53;;;1.30;;
81930;SDS011;71395;43.488;1.472;2023-11-19T15:00:26;2.28;;;1.20;;
81930;SDS011;71395;43.488;1.472;2023-11-19T15:02:51;3.03;;;1.35;;
81930;SDS011;71395;43.488;1.472;2023-11-19T15:05:17;2.83;;;1.35;;
81930;SDS011;71395;43.488;1.472;2023-11-19T15:07:42;3.38;;;1.60;;
81930;SDS011;71395;43.488;1.472;2023-11-19T15:10:07;2.60;;;1.30;;
81930;SDS011;71395;43.488;1.472;2023-11-19T15:12:34;2.60;;;1.25;;
81930;SDS011;71395;43.488;1.472;2023-11-19T15:15:02;2.30;;;1.33;;
81930;SDS011;71395;43.488;1.472;2023-11-19T15:17:28;3.00;;;1.45;;